Nordlys — LHCW — position and weather

sailwx.info

Track history (hours):
 
Tides and Currents Weather Stations Pressure Air Temp Water Temp Dewpoint Dewpoint Depression Visibility Wind Speed Wind Dir Waves Ship Positions

Nordlys

Last reported at 2017-Nov-18 17:30 UTC. Time now 2017-Nov-18 17:54 UTC.
Position N 70°13' E 021°08'.

Length 122 m; draft 4.5 m.

Type: Passenger vessel. MMSI: 259139000.

Date/timePositionNaut miles runAvg speedWind from/ knotsBaromVisibWave heightAir tempDewpointWater temp
2017-Nov-18 17:30N 70°13' E 021°08'714.4
2017-Nov-18 17:00N 70°18' E 021°24'814.8
2017-Nov-18 16:30N 70°23' E 021°39'713.6
2017-Nov-18 16:00N 70°21' E 021°58'715.3
2017-Nov-18 15:30N 70°17' E 022°17'3 6.6
2017-Nov-18 14:59N 70°14' E 022°21'4 8.2
2017-Nov-18 14:30N 70°18' E 022°18'713.7
2017-Nov-18 14:00N 70°24' E 022°28'815.0
2017-Nov-18 13:30N 70°28' E 022°47'714.3
2017-Nov-18 13:00N 70°33' E 023°04'714.4
2017-Nov-18 12:30N 70°38' E 023°20'714.2
2017-Nov-18 12:00N 70°40' E 023°40'0 0.7
2017-Nov-18 11:30N 70°40' E 023°41'0 0.0
2017-Nov-18 11:00N 70°40' E 023°41'0 0.0
2017-Nov-18 10:30N 70°40' E 023°41'1 1.3
2017-Nov-18 10:00N 70°40' E 023°39'612.1
2017-Nov-18 09:30N 70°46' E 023°40'816.0
2017-Nov-18 09:00N 70°51' E 023°57'816.3
2017-Nov-18 08:30N 70°57' E 024°16'816.0
2017-Nov-18 08:00N 71°02' E 024°35'3 6.3
2017-Nov-18 07:30N 70°60' E 024°41'612.0
2017-Nov-18 07:00N 70°59' E 025°00'815.7
2017-Nov-18 06:30N 70°58' E 025°24'815.3
2017-Nov-18 06:00N 70°56' E 025°46'5 9.3
2017-Nov-18 05:30N 70°59' E 025°58'3 5.5
2017-Nov-18 05:00N 70°58' E 026°06'715.0
2017-Nov-18 04:30N 70°59' E 026°29'815.2
2017-Nov-18 04:00N 70°59' E 026°52'714.5
2017-Nov-18 03:30N 70°58' E 027°15'2 4.6
2017-Nov-18 03:00N 70°57' E 027°20'511.1
2017-Nov-18 02:30N 71°01' E 027°10'713.8
2017-Nov-18 02:00N 71°06' E 027°26'612.3
2017-Nov-18 01:31N 71°08' E 027°43'5 5.1
2017-Nov-18 00:28N 71°04' E 027°51'613.8
2017-Nov-18 00:00N 71°07' E 028°07'713.1
2017-Nov-17 23:31N 71°05' E 028°26'814.8
2017-Nov-17 23:00N 70°60' E 028°44'715.2
2017-Nov-17 22:30N 70°55' E 029°02'4 8.1
2017-Nov-17 22:00N 70°51' E 029°07'2 3.7
2017-Nov-17 21:30N 70°52' E 029°12'713.4
2017-Nov-17 21:00N 70°49' E 029°29'814.8
2017-Nov-17 20:30N 70°45' E 029°48'612.7
2017-Nov-17 20:00N 70°38' E 029°45'1 1.5
2017-Nov-17 19:30N 70°38' E 029°44'1 2.5
2017-Nov-17 19:00N 70°39' E 029°47'713.9
2017-Nov-17 18:30N 70°43' E 030°01'713.4
2017-Nov-17 18:00N 70°40' E 030°19'714.3
2017-Nov-17 17:30N 70°35' E 030°35'714.0
2017-Nov-17 17:00N 70°31' E 030°49'713.5
2017-Nov-17 16:30N 70°26' E 031°04'3 6.5
2017-Nov-17 16:00N 70°22' E 031°06'0 0.0
2017-Nov-17 15:31N 70°22' E 031°06'2 3.5
2017-Nov-17 15:00N 70°21' E 031°08'611.8
2017-Nov-17 14:30N 70°15' E 031°02'713.0
2017-Nov-17 14:00N 70°10' E 030°49'612.7
2017-Nov-17 13:30N 70°06' E 030°38'712.9
2017-Nov-17 13:00N 70°00' E 030°26'713.2
2017-Nov-17 12:30N 69°55' E 030°14'713.8
2017-Nov-17 12:00N 69°49' E 030°07'510.4
2017-Nov-17 11:30N 69°44' E 030°04'0 0.0
2017-Nov-17 10:58N 69°44' E 030°04'0 0.0
2017-Nov-17 10:28N 69°44' E 030°04'0 0.0
2017-Nov-17 09:58N 69°44' E 030°04'0 0.0
2017-Nov-17 09:28N 69°44' E 030°04'0 0.0
2017-Nov-17 08:58N 69°44' E 030°04'0 0.0
2017-Nov-17 08:28N 69°44' E 030°04'0 0.0
2017-Nov-17 07:58N 69°44' E 030°04'0 0.0
2017-Nov-17 07:28N 69°44' E 030°04'0 0.0
2017-Nov-17 07:00N 69°44' E 030°04'2 3.6
2017-Nov-17 06:30N 69°45' E 030°05'713.6
2017-Nov-17 06:00N 69°52' E 030°08'713.0
2017-Nov-17 05:29N 69°58' E 030°19'713.6
2017-Nov-17 05:00N 70°03' E 030°31'714.0
2017-Nov-17 04:30N 70°08' E 030°44'714.2
2017-Nov-17 04:00N 70°14' E 030°58'714.2
2017-Nov-17 03:30N 70°20' E 031°08'510.7
2017-Nov-17 03:00N 70°25' E 031°05'510.5
2017-Nov-17 02:29N 70°29' E 030°54'715.4
2017-Nov-17 02:00N 70°34' E 030°38'815.4
2017-Nov-17 01:30N 70°40' E 030°21'714.7
2017-Nov-17 01:00N 70°44' E 030°02'714.3
2017-Nov-17 00:30N 70°39' E 029°47'1 2.7
2017-Nov-17 00:00N 70°38' E 029°44'0 0.3
2017-Nov-16 23:30N 70°38' E 029°44'713.2
2017-Nov-16 22:58N 70°45' E 029°47'714.9
2017-Nov-16 22:30N 70°49' E 029°30'714.2
2017-Nov-16 22:00N 70°52' E 029°11'2 3.1
2017-Nov-16 21:31N 70°52' E 029°07'3 6.7
2017-Nov-16 21:00N 70°55' E 029°02'510.9
2017-Nov-16 20:30N 70°58' E 028°49'713.5
2017-Nov-16 20:00N 71°02' E 028°33'714.3
2017-Nov-16 19:30N 71°07' E 028°16'612.9
2017-Nov-16 19:00N 71°06' E 027°57'3 3.5
2017-Nov-16 18:12N 71°04' E 027°50'314.7
2017-Nov-16 18:00N 71°07' E 027°47'510.8
2017-Nov-16 17:30N 71°07' E 027°30'713.8
2017-Nov-16 17:00N 71°03' E 027°13'611.7
2017-Nov-16 16:29N 70°57' E 027°20'0 0.6
2017-Nov-16 16:00N 70°57' E 027°21'612.0
2017-Nov-16 15:30N 70°59' E 027°03'713.7
2017-Nov-16 15:00N 70°59' E 026°42'714.2
2017-Nov-16 14:30N 70°58' E 026°21'714.2
2017-Nov-16 14:00N 70°58' E 025°59'1 1.9
2017-Nov-16 13:29N 70°59' E 025°58'0 0.0
2017-Nov-16 12:59N 70°59' E 025°58'0 0.0
2017-Nov-16 12:29N 70°59' E 025°58'0 0.0
2017-Nov-16 11:59N 70°59' E 025°58'0 0.0
2017-Nov-16 11:29N 70°59' E 025°58'0 0.0
2017-Nov-16 10:59N 70°59' E 025°58'0 0.0
2017-Nov-16 10:30N 70°59' E 025°58'2 4.5
2017-Nov-16 10:00N 70°57' E 025°54'714.4
2017-Nov-16 09:30N 70°56' E 025°32'714.7
2017-Nov-16 09:00N 70°59' E 025°13'714.6
2017-Nov-16 08:30N 70°60' E 024°50'3 5.8
2017-Nov-16 08:00N 70°60' E 024°41'4 7.5
2017-Nov-16 07:30N 71°01' E 024°31'715.0
2017-Nov-16 07:01N 70°56' E 024°14'814.8
2017-Nov-16 06:30N 70°51' E 023°57'815.2
2017-Nov-16 06:00N 70°46' E 023°40'612.0
2017-Nov-16 05:30N 70°40' E 023°38'1 1.8
2017-Nov-16 05:00N 70°40' E 023°41'0 0.4
2017-Nov-16 04:31N 70°40' E 023°41'713.7
2017-Nov-16 04:00N 70°38' E 023°21'715.1
2017-Nov-16 03:30N 70°33' E 023°04'715.0
2017-Nov-16 03:00N 70°28' E 022°46'815.6
2017-Nov-16 02:30N 70°24' E 022°27'713.7
2017-Nov-16 02:00N 70°18' E 022°19'3 6.8
2017-Nov-16 01:30N 70°14' E 022°21'612.6
2017-Nov-16 01:00N 70°19' E 022°10'815.6
2017-Nov-16 00:30N 70°23' E 021°49'613.0
2017-Nov-16 00:00N 70°21' E 021°32'816.0
2017-Nov-15 23:30N 70°15' E 021°14'815.4
2017-Nov-15 23:00N 70°08' E 021°05'612.7
2017-Nov-15 22:30N 70°02' E 020°59'1 2.4
2017-Nov-15 22:00N 70°03' E 021°02'713.9
2017-Nov-15 21:30N 70°02' E 020°42'815.8
2017-Nov-15 21:00N 69°59' E 020°20'815.5
2017-Nov-15 20:30N 69°55' E 020°01'815.7
2017-Nov-15 20:00N 69°51' E 019°42'815.9
2017-Nov-15 19:30N 69°48' E 019°21'714.8
2017-Nov-15 19:00N 69°44' E 019°03'510.0
2017-Nov-15 18:30N 69°39' E 018°58'0 0.0
2017-Nov-15 18:00N 69°39' E 018°58'0 0.0
2017-Nov-15 17:30N 69°39' E 018°58'0 0.0
2017-Nov-15 17:00N 69°39' E 018°58'0 0.0
2017-Nov-15 16:30N 69°39' E 018°58'0 0.0
2017-Nov-15 16:00N 69°39' E 018°58'0 0.0
2017-Nov-15 15:30N 69°39' E 018°58'0 0.0
2017-Nov-15 15:00N 69°39' E 018°58'0 0.0
2017-Nov-15 14:30N 69°39' E 018°58'510.3
2017-Nov-15 14:00N 69°35' E 018°49'714.8
2017-Nov-15 13:30N 69°32' E 018°30'816.0
2017-Nov-15 13:00N 69°29' E 018°08'815.1
2017-Nov-15 12:30N 69°21' E 018°05'714.7
2017-Nov-15 12:00N 69°14' E 017°58'0 0.2
2017-Nov-15 11:30N 69°14' E 017°58'3 5.4
2017-Nov-15 11:00N 69°17' E 017°59'3 6.4
2017-Nov-15 10:30N 69°14' E 017°58'0 0.0
2017-Nov-15 10:00N 69°14' E 017°58'4 8.0
2017-Nov-15 09:30N 69°10' E 017°56'714.3
2017-Nov-15 09:00N 69°07' E 017°38'714.0
2017-Nov-15 08:31N 69°03' E 017°21'714.3
2017-Nov-15 08:00N 68°58' E 017°08'714.4
2017-Nov-15 07:30N 68°53' E 016°52'714.2
2017-Nov-15 07:00N 68°49' E 016°36'2 3.3
2017-Nov-15 06:29N 68°48' E 016°33'0 0.0
2017-Nov-15 06:00N 68°48' E 016°33'4 7.3
2017-Nov-15 05:30N 68°51' E 016°31'814.7
2017-Nov-15 05:00N 68°56' E 016°15'714.5
2017-Nov-15 04:30N 68°59' E 015°56'611.8
2017-Nov-15 03:59N 68°58' E 015°40'3 5.7
2017-Nov-15 03:30N 68°56' E 015°35'714.8
2017-Nov-15 03:00N 68°49' E 015°27'714.2
2017-Nov-15 02:30N 68°42' E 015°25'0 0.1
2017-Nov-15 02:00N 68°42' E 015°25'612.5
2017-Nov-15 01:30N 68°36' E 015°16'714.1
2017-Nov-15 01:00N 68°35' E 014°58'1 2.4
2017-Nov-15 00:30N 68°34' E 014°55'510.1
2017-Nov-15 00:00N 68°32' E 015°07'510.9
2017-Nov-14 23:30N 68°27' E 015°10'714.2
2017-Nov-14 23:00N 68°20' E 015°02'2 4.2
2017-Nov-14 22:30N 68°22' E 014°57'510.5
2017-Nov-14 22:00N 68°17' E 014°58'510.4
2017-Nov-14 21:30N 68°14' E 014°46'4 8.8
2017-Nov-14 21:00N 68°14' E 014°34'0 0.0
2017-Nov-14 20:29N 68°14' E 014°34'0 0.6
2017-Nov-14 20:00N 68°14' E 014°34'611.7
2017-Nov-14 19:30N 68°10' E 014°21'714.2
2017-Nov-14 19:00N 68°07' E 014°04'510.0
2017-Nov-14 18:30N 68°07' E 013°50'0 0.5
2017-Nov-14 18:00N 68°07' E 013°50'713.7
2017-Nov-14 17:30N 68°00' E 013°55'713.1
2017-Nov-14 16:59N 67°54' E 014°01'713.3
2017-Nov-14 16:30N 67°48' E 014°07'714.0
2017-Nov-14 16:00N 67°41' E 014°13'714.0
2017-Nov-14 15:30N 67°35' E 014°19'713.9
2017-Nov-14 15:00N 67°28' E 014°23'713.2
2017-Nov-14 14:30N 67°21' E 014°24'4 8.5
2017-Nov-14 14:01N 67°17' E 014°23'0 0.0
2017-Nov-14 13:29N 67°17' E 014°23'0 0.0
2017-Nov-14 12:59N 67°17' E 014°23'0 0.0
2017-Nov-14 12:29N 67°17' E 014°23'0 0.0
2017-Nov-14 11:59N 67°17' E 014°23'0 0.2
2017-Nov-14 11:31N 67°17' E 014°23'611.5
2017-Nov-14 11:01N 67°14' E 014°12'714.2
2017-Nov-14 10:30N 67°08' E 014°01'714.2
2017-Nov-14 10:01N 67°03' E 013°49'714.5
2017-Nov-14 09:30N 66°58' E 013°34'5 9.3
2017-Nov-14 09:00N 66°54' E 013°35'3 6.4
2017-Nov-14 08:30N 66°52' E 013°42'2 5.0
2017-Nov-14 08:00N 66°50' E 013°39'713.9
2017-Nov-14 07:30N 66°48' E 013°22'713.7
2017-Nov-14 07:00N 66°43' E 013°11'714.3
2017-Nov-14 06:30N 66°36' E 013°04'612.3
2017-Nov-14 06:00N 66°30' E 012°59'814.6
2017-Nov-14 05:30N 66°23' E 012°58'715.1
2017-Nov-14 05:00N 66°16' E 012°55'4 8.7
2017-Nov-14 04:30N 66°12' E 013°00'4 8.3
2017-Nov-14 04:00N 66°09' E 012°53'714.7
2017-Nov-14 03:30N 66°04' E 012°39'3 5.3
2017-Nov-14 02:58N 66°01' E 012°38'1 2.6
2017-Nov-14 02:30N 66°02' E 012°35'815.0
2017-Nov-14 02:00N 65°56' E 012°24'715.0
2017-Nov-14 01:30N 65°48' E 012°21'714.8
2017-Nov-14 01:00N 65°41' E 012°16'714.8
2017-Nov-14 00:30N 65°34' E 012°13'510.4
2017-Nov-14 00:00N 65°29' E 012°13'3 5.2
2017-Nov-13 23:29N 65°26' E 012°09'714.3
2017-Nov-13 23:00N 65°20' E 012°02'714.7
2017-Nov-13 22:30N 65°13' E 011°54'714.6
2017-Nov-13 22:00N 65°07' E 011°49'121 6.1
2017-Nov-13 02:00N 63°29' E 009°02'815.7
2017-Nov-13 01:30N 63°26' E 008°46'815.7
2017-Nov-13 01:00N 63°23' E 008°30'815.3
2017-Nov-13 00:30N 63°19' E 008°16'714.9
2017-Nov-13 00:01N 63°15' E 008°02'714.8
2017-Nov-12 23:31N 63°11' E 007°48'5 9.8
2017-Nov-12 23:01N 63°06' E 007°44'1 2.8
2017-Nov-12 22:30N 63°07' E 007°41'612.3
2017-Nov-12 22:01N 63°05' E 007°28'612.9
2017-Nov-12 21:30N 63°03' E 007°14'611.4
2017-Nov-12 21:00N 63°02' E 007°02'611.1
2017-Nov-12 20:30N 62°58' E 006°52'4 8.5
2017-Nov-12 20:00N 62°54' E 006°52'612.7
2017-Nov-12 19:30N 62°48' E 006°58'510.7
2017-Nov-12 19:00N 62°43' E 007°03'3 6.4
2017-Nov-12 18:30N 62°44' E 007°09'713.5
2017-Nov-12 18:00N 62°42' E 006°56'815.0
2017-Nov-12 17:30N 62°39' E 006°40'714.8
2017-Nov-12 17:00N 62°37' E 006°24'713.9
2017-Nov-12 16:31N 62°34' E 006°12'714.1
2017-Nov-12 16:01N 62°28' E 006°05'2 4.5
2017-Nov-12 15:30N 62°28' E 006°09'0 0.0
2017-Nov-12 15:00N 62°28' E 006°09'0 0.0
2017-Nov-12 14:30N 62°28' E 006°09'2 4.0
2017-Nov-12 14:00N 62°27' E 006°06'714.4
2017-Nov-12 13:30N 62°25' E 005°51'611.5
2017-Nov-12 12:59N 62°20' E 005°44'1 1.8
2017-Nov-12 12:30N 62°19' E 005°45'713.8
2017-Nov-12 12:00N 62°18' E 005°30'612.7
2017-Nov-12 11:30N 62°16' E 005°17'611.5
2017-Nov-12 11:00N 62°14' E 005°06'5 9.7
2017-Nov-12 10:30N 62°10' E 004°60'5 9.8
2017-Nov-12 10:00N 62°05' E 005°00'5 9.7
2017-Nov-12 09:29N 62°02' E 005°09'611.8
2017-Nov-12 09:00N 61°56' E 005°07'4 8.0
2017-Nov-12 08:30N 61°53' E 005°11'4 7.3
2017-Nov-12 08:00N 61°49' E 005°11'815.2
2017-Nov-12 07:30N 61°44' E 004°59'714.8
2017-Nov-12 07:00N 61°37' E 004°59'1 2.6
2017-Nov-12 06:30N 61°36' E 005°02'3 6.2
2017-Nov-12 06:00N 61°33' E 005°00'715.0
2017-Nov-12 05:31N 61°26' E 004°58'714.6
2017-Nov-12 05:00N 61°19' E 005°04'612.0
2017-Nov-12 04:30N 61°14' E 004°56'714.0
2017-Nov-12 04:00N 61°07' E 005°02'713.5
2017-Nov-12 03:31N 61°02' E 004°54'712.9
2017-Nov-12 03:00N 60°57' E 004°46'714.0
2017-Nov-12 02:30N 60°50' E 004°45'713.5
2017-Nov-12 02:00N 60°43' E 004°49'714.5
2017-Nov-12 01:30N 60°36' E 004°54'814.9
2017-Nov-12 00:59N 60°29' E 004°59'714.6
2017-Nov-12 00:31N 60°24' E 005°08'510.0
2017-Nov-12 00:00N 60°24' E 005°19'0 0.0
2017-Nov-11 23:25N 60°24' E 005°19'0 0.0
2017-Nov-11 22:55N 60°24' E 005°19'0 0.0
2017-Nov-11 22:19N 60°24' E 005°19'0 0.0
2017-Nov-11 21:55N 60°24' E 005°19'0 0.0
2017-Nov-11 21:25N 60°24' E 005°19'0 0.0
2017-Nov-11 20:55N 60°24' E 005°19'0 0.0
2017-Nov-11 20:25N 60°24' E 005°19'0 0.0
2017-Nov-11 19:55N 60°24' E 005°19'0 0.0
2017-Nov-11 19:25N 60°24' E 005°19'0 0.0
2017-Nov-11 18:58N 60°24' E 005°19'0 0.0
2017-Nov-11 18:28N 60°24' E 005°19'0 0.0
2017-Nov-11 17:58N 60°24' E 005°19'0 0.0
2017-Nov-11 17:28N 60°24' E 005°19'0 0.0
2017-Nov-11 16:58N 60°24' E 005°19'0 0.0
2017-Nov-11 16:28N 60°24' E 005°19'0 0.0
2017-Nov-11 15:58N 60°24' E 005°19'1 2.0
2017-Nov-11 15:30N 60°24' E 005°17'713.7
2017-Nov-11 15:00N 60°25' E 005°03'816.2
2017-Nov-11 14:30N 60°33' E 004°56'816.2
2017-Nov-11 14:00N 60°40' E 004°51'815.8
2017-Nov-11 13:30N 60°48' E 004°45'814.9
2017-Nov-11 13:00N 60°55' E 004°46'714.2
2017-Nov-11 12:30N 61°01' E 004°52'815.1
2017-Nov-11 12:00N 61°07' E 005°02'814.8
2017-Nov-11 11:29N 61°14' E 004°56'612.6
2017-Nov-11 11:00N 61°19' E 005°04'715.1
2017-Nov-11 10:30N 61°26' E 004°58'815.2
2017-Nov-11 10:00N 61°34' E 004°59'3 5.3
2017-Nov-11 09:30N 61°36' E 005°02'2 4.8
2017-Nov-11 09:00N 61°38' E 004°59'714.5
2017-Nov-11 08:30N 61°45' E 005°01'714.8
2017-Nov-11 08:00N 61°50' E 005°13'510.1
2017-Nov-11 07:30N 61°54' E 005°08'2 4.6
2017-Nov-11 07:00N 61°56' E 005°07'510.0
2017-Nov-11 06:30N 62°01' E 005°09'4 8.7
2017-Nov-11 06:00N 62°04' E 005°02'5 9.2
2017-Nov-11 05:30N 62°09' E 004°60'4 7.5
2017-Nov-11 04:59N 62°12' E 005°02'4 8.1
2017-Nov-11 04:30N 62°14' E 005°10'4 8.3
2017-Nov-11 04:00N 62°12' E 005°18'611.1
2017-Nov-11 03:29N 62°12' E 005°30'714.3
2017-Nov-11 03:00N 62°12' E 005°45'714.6
2017-Nov-11 02:30N 62°16' E 005°58'713.9
2017-Nov-11 02:00N 62°22' E 006°07'713.6
2017-Nov-11 01:30N 62°28' E 006°04'4 7.4
2017-Nov-11 01:00N 62°29' E 006°12'1 2.5
2017-Nov-11 00:30N 62°29' E 006°09'1 1.4
2017-Nov-11 00:01N 62°29' E 006°09'612.6
2017-Nov-10 23:30N 62°35' E 006°15'612.5
2017-Nov-10 23:00N 62°38' E 006°27'714.0
2017-Nov-10 22:30N 62°39' E 006°42'714.2
2017-Nov-10 22:00N 62°42' E 006°56'612.6
2017-Nov-10 21:29N 62°44' E 007°09'0 0.2
2017-Nov-10 21:00N 62°44' E 007°09'4 8.6
2017-Nov-10 20:30N 62°43' E 007°00'612.3
2017-Nov-10 20:00N 62°49' E 006°58'612.7
2017-Nov-10 19:30N 62°55' E 006°51'510.3
2017-Nov-10 19:00N 62°59' E 006°55'510.2
2017-Nov-10 18:30N 63°02' E 007°04'5 9.8
2017-Nov-10 18:00N 63°03' E 007°14'611.4
2017-Nov-10 17:30N 63°05' E 007°27'611.8
2017-Nov-10 17:01N 63°08' E 007°38'3 6.0
2017-Nov-10 16:30N 63°07' E 007°44'0 0.1
2017-Nov-10 16:00N 63°07' E 007°44'3 5.6
2017-Nov-10 15:30N 63°10' E 007°45'714.2
2017-Nov-10 15:00N 63°14' E 007°58'714.3
2017-Nov-10 14:30N 63°17' E 008°11'713.6
2017-Nov-10 14:00N 63°22' E 008°23'713.9
2017-Nov-10 13:30N 63°25' E 008°36'714.3
2017-Nov-10 13:00N 63°28' E 008°51'713.6
2017-Nov-10 12:30N 63°30' E 009°06'611.9
2017-Nov-10 12:00N 63°33' E 009°17'713.2
2017-Nov-10 11:30N 63°36' E 009°30'713.7
2017-Nov-10 11:00N 63°39' E 009°44'713.7
2017-Nov-10 10:30N 63°34' E 009°51'713.0
2017-Nov-10 10:01N 63°29' E 010°01'714.1
2017-Nov-10 09:30N 63°28' E 010°17'4 6.6
2017-Nov-10 08:59N 63°27' E 010°24'0 0.0
2017-Nov-10 08:29N 63°27' E 010°24'0 0.0
2017-Nov-10 07:59N 63°27' E 010°24'0 0.0
2017-Nov-10 07:29N 63°27' E 010°24'0 0.0
2017-Nov-10 06:59N 63°27' E 010°24'0 0.0
2017-Nov-10 06:29N 63°27' E 010°24'0 0.0
2017-Nov-10 05:59N 63°27' E 010°24'1 2.5
2017-Nov-10 05:30N 63°27' E 010°22'815.0
2017-Nov-10 05:00N 63°28' E 010°05'714.4
2017-Nov-10 04:30N 63°33' E 009°52'714.4
2017-Nov-10 04:00N 63°39' E 009°46'714.6
2017-Nov-10 03:30N 63°38' E 009°29'713.4
2017-Nov-10 03:00N 63°44' E 009°32'713.9
2017-Nov-10 02:30N 63°51' E 009°39'713.3
2017-Nov-10 02:00N 63°56' E 009°47'713.3
2017-Nov-10 01:30N 64°03' E 009°48'713.6
2017-Nov-10 01:00N 64°07' E 010°01'713.6
2017-Nov-10 00:30N 64°12' E 010°11'612.7
2017-Nov-10 00:00N 64°17' E 010°19'612.7
2017-Nov-09 23:30N 64°22' E 010°28'713.6
2017-Nov-09 23:00N 64°29' E 010°26'612.4
2017-Nov-09 22:30N 64°34' E 010°34'612.4
2017-Nov-09 22:00N 64°39' E 010°43'612.7
2017-Nov-09 21:30N 64°43' E 010°54'613.2
2017-Nov-09 21:01N 64°48' E 011°06'510.8
2017-Nov-09 20:30N 64°52' E 011°14'0 0.0
2017-Nov-09 20:00N 64°52' E 011°14'0 0.1
2017-Nov-09 19:30N 64°52' E 011°14'611.8
2017-Nov-09 19:01N 64°55' E 011°25'714.0
2017-Nov-09 18:31N 65°00' E 011°37'714.2
2017-Nov-09 18:01N 65°06' E 011°48'713.9
2017-Nov-09 17:30N 65°12' E 011°53'713.3
2017-Nov-09 17:01N 65°18' E 011°59'714.0
2017-Nov-09 16:30N 65°24' E 012°08'4 8.8
2017-Nov-09 16:00N 65°29' E 012°13'0 0.0
2017-Nov-09 15:28N 65°29' E 012°13'0 0.0
2017-Nov-09 15:00N 65°29' E 012°13'4 8.3
2017-Nov-09 14:30N 65°33' E 012°12'714.1
2017-Nov-09 14:00N 65°40' E 012°15'714.1
2017-Nov-09 13:30N 65°47' E 012°19'713.9
2017-Nov-09 13:00N 65°53' E 012°22'612.7
2017-Nov-09 12:30N 65°59' E 012°29'5 9.1
2017-Nov-09 12:00N 66°01' E 012°38'2 3.1
2017-Nov-09 11:30N 66°03' E 012°39'713.4
2017-Nov-09 11:00N 66°08' E 012°49'611.8
2017-Nov-09 10:30N 66°12' E 013°00'3 6.5
2017-Nov-09 10:00N 66°14' E 012°54'714.6
2017-Nov-09 09:30N 66°21' E 012°57'714.5
2017-Nov-09 09:00N 66°28' E 012°59'612.0
2017-Nov-09 08:30N 66°34' E 013°04'612.7
2017-Nov-09 08:00N 66°40' E 013°07'612.4
2017-Nov-09 07:30N 66°46' E 013°13'713.5
2017-Nov-09 07:00N 66°49' E 013°29'612.3
2017-Nov-09 06:30N 66°52' E 013°42'2 3.6
2017-Nov-09 06:00N 66°52' E 013°37'611.2
2017-Nov-09 05:31N 66°56' E 013°29'713.1
2017-Nov-09 05:00N 67°01' E 013°41'714.8
2017-Nov-09 04:30N 67°05' E 013°56'612.7
2017-Nov-09 04:00N 67°11' E 014°05'713.7
2017-Nov-09 03:30N 67°16' E 014°17'3 5.4
2017-Nov-09 02:58N 67°17' E 014°23'0 0.0
2017-Nov-09 02:28N 67°17' E 014°23'0 0.0
2017-Nov-09 01:58N 67°17' E 014°23'0 0.0
2017-Nov-09 01:28N 67°17' E 014°23'0 0.0
2017-Nov-09 00:58N 67°17' E 014°23'0 0.0
2017-Nov-09 00:28N 67°17' E 014°23'0 0.2
2017-Nov-09 00:01N 67°17' E 014°23'5 9.4
2017-Nov-08 23:31N 67°22' E 014°24'712.9
2017-Nov-08 23:00N 67°28' E 014°23'713.8
2017-Nov-08 22:30N 67°35' E 014°19'713.3
2017-Nov-08 22:00N 67°41' E 014°13'612.8
2017-Nov-08 21:30N 67°48' E 014°07'612.0
2017-Nov-08 21:00N 67°53' E 014°02'611.5
2017-Nov-08 20:30N 67°59' E 013°57'611.4
2017-Nov-08 20:00N 68°04' E 013°54'4 8.0
2017-Nov-08 19:30N 68°07' E 014°01'510.9
2017-Nov-08 19:00N 68°09' E 014°15'611.1
2017-Nov-08 18:30N 68°11' E 014°29'3 5.8
2017-Nov-08 18:00N 68°13' E 014°35'1 2.0
2017-Nov-08 17:30N 68°13' E 014°38'  
Track history (hours):
 
Tides and Currents Weather Stations Pressure Air Temp Water Temp Dewpoint Dewpoint Depression Visibility Wind Speed Wind Dir Waves Ship Positions

Nordlys

Last reported at 2017-Nov-18 17:30 UTC. Time now 2017-Nov-18 17:54 UTC.
Position N 70°13' E 021°08'.

Length 122 m; draft 4.5 m.

Type: Passenger vessel. MMSI: 259139000.

Date/timePositionNaut miles runAvg speedWind from/ knotsBaromVisibWave heightAir tempDewpointWater temp
2017-Nov-18 17:30N 70°13' E 021°08'714.4
2017-Nov-18 17:00N 70°18' E 021°24'814.8
2017-Nov-18 16:30N 70°23' E 021°39'713.6
2017-Nov-18 16:00N 70°21' E 021°58'715.3
2017-Nov-18 15:30N 70°17' E 022°17'3 6.6
2017-Nov-18 14:59N 70°14' E 022°21'4 8.2
2017-Nov-18 14:30N 70°18' E 022°18'713.7
2017-Nov-18 14:00N 70°24' E 022°28'815.0
2017-Nov-18 13:30N 70°28' E 022°47'714.3
2017-Nov-18 13:00N 70°33' E 023°04'714.4
2017-Nov-18 12:30N 70°38' E 023°20'714.2
2017-Nov-18 12:00N 70°40' E 023°40'0 0.7
2017-Nov-18 11:30N 70°40' E 023°41'0 0.0
2017-Nov-18 11:00N 70°40' E 023°41'0 0.0
2017-Nov-18 10:30N 70°40' E 023°41'1 1.3
2017-Nov-18 10:00N 70°40' E 023°39'612.1
2017-Nov-18 09:30N 70°46' E 023°40'816.0
2017-Nov-18 09:00N 70°51' E 023°57'816.3
2017-Nov-18 08:30N 70°57' E 024°16'816.0
2017-Nov-18 08:00N 71°02' E 024°35'3 6.3
2017-Nov-18 07:30N 70°60' E 024°41'612.0
2017-Nov-18 07:00N 70°59' E 025°00'815.7
2017-Nov-18 06:30N 70°58' E 025°24'815.3
2017-Nov-18 06:00N 70°56' E 025°46'5 9.3
2017-Nov-18 05:30N 70°59' E 025°58'3 5.5
2017-Nov-18 05:00N 70°58' E 026°06'715.0
2017-Nov-18 04:30N 70°59' E 026°29'815.2
2017-Nov-18 04:00N 70°59' E 026°52'714.5
2017-Nov-18 03:30N 70°58' E 027°15'2 4.6
2017-Nov-18 03:00N 70°57' E 027°20'511.1
2017-Nov-18 02:30N 71°01' E 027°10'713.8
2017-Nov-18 02:00N 71°06' E 027°26'612.3
2017-Nov-18 01:31N 71°08' E 027°43'5 5.1
2017-Nov-18 00:28N 71°04' E 027°51'613.8
2017-Nov-18 00:00N 71°07' E 028°07'713.1
2017-Nov-17 23:31N 71°05' E 028°26'814.8
2017-Nov-17 23:00N 70°60' E 028°44'715.2
2017-Nov-17 22:30N 70°55' E 029°02'4 8.1
2017-Nov-17 22:00N 70°51' E 029°07'2 3.7
2017-Nov-17 21:30N 70°52' E 029°12'713.4
2017-Nov-17 21:00N 70°49' E 029°29'814.8
2017-Nov-17 20:30N 70°45' E 029°48'612.7
2017-Nov-17 20:00N 70°38' E 029°45'1 1.5
2017-Nov-17 19:30N 70°38' E 029°44'1 2.5
2017-Nov-17 19:00N 70°39' E 029°47'713.9
2017-Nov-17 18:30N 70°43' E 030°01'713.4
2017-Nov-17 18:00N 70°40' E 030°19'714.3
2017-Nov-17 17:30N 70°35' E 030°35'714.0
2017-Nov-17 17:00N 70°31' E 030°49'713.5
2017-Nov-17 16:30N 70°26' E 031°04'3 6.5
2017-Nov-17 16:00N 70°22' E 031°06'0 0.0
2017-Nov-17 15:31N 70°22' E 031°06'2 3.5
2017-Nov-17 15:00N 70°21' E 031°08'611.8
2017-Nov-17 14:30N 70°15' E 031°02'713.0
2017-Nov-17 14:00N 70°10' E 030°49'612.7
2017-Nov-17 13:30N 70°06' E 030°38'712.9
2017-Nov-17 13:00N 70°00' E 030°26'713.2
2017-Nov-17 12:30N 69°55' E 030°14'713.8
2017-Nov-17 12:00N 69°49' E 030°07'510.4
2017-Nov-17 11:30N 69°44' E 030°04'0 0.0
2017-Nov-17 10:58N 69°44' E 030°04'0 0.0
2017-Nov-17 10:28N 69°44' E 030°04'0 0.0
2017-Nov-17 09:58N 69°44' E 030°04'0 0.0
2017-Nov-17 09:28N 69°44' E 030°04'0 0.0
2017-Nov-17 08:58N 69°44' E 030°04'0 0.0
2017-Nov-17 08:28N 69°44' E 030°04'0 0.0
2017-Nov-17 07:58N 69°44' E 030°04'0 0.0
2017-Nov-17 07:28N 69°44' E 030°04'0 0.0
2017-Nov-17 07:00N 69°44' E 030°04'2 3.6
2017-Nov-17 06:30N 69°45' E 030°05'713.6
2017-Nov-17 06:00N 69°52' E 030°08'713.0
2017-Nov-17 05:29N 69°58' E 030°19'713.6
2017-Nov-17 05:00N 70°03' E 030°31'714.0
2017-Nov-17 04:30N 70°08' E 030°44'714.2
2017-Nov-17 04:00N 70°14' E 030°58'714.2
2017-Nov-17 03:30N 70°20' E 031°08'510.7
2017-Nov-17 03:00N 70°25' E 031°05'510.5
2017-Nov-17 02:29N 70°29' E 030°54'715.4
2017-Nov-17 02:00N 70°34' E 030°38'815.4
2017-Nov-17 01:30N 70°40' E 030°21'714.7
2017-Nov-17 01:00N 70°44' E 030°02'714.3
2017-Nov-17 00:30N 70°39' E 029°47'1 2.7
2017-Nov-17 00:00N 70°38' E 029°44'0 0.3
2017-Nov-16 23:30N 70°38' E 029°44'713.2
2017-Nov-16 22:58N 70°45' E 029°47'714.9
2017-Nov-16 22:30N 70°49' E 029°30'714.2
2017-Nov-16 22:00N 70°52' E 029°11'2 3.1
2017-Nov-16 21:31N 70°52' E 029°07'3 6.7
2017-Nov-16 21:00N 70°55' E 029°02'510.9
2017-Nov-16 20:30N 70°58' E 028°49'713.5
2017-Nov-16 20:00N 71°02' E 028°33'714.3
2017-Nov-16 19:30N 71°07' E 028°16'612.9
2017-Nov-16 19:00N 71°06' E 027°57'3 3.5
2017-Nov-16 18:12N 71°04' E 027°50'314.7
2017-Nov-16 18:00N 71°07' E 027°47'510.8
2017-Nov-16 17:30N 71°07' E 027°30'713.8
2017-Nov-16 17:00N 71°03' E 027°13'611.7
2017-Nov-16 16:29N 70°57' E 027°20'0 0.6
2017-Nov-16 16:00N 70°57' E 027°21'612.0
2017-Nov-16 15:30N 70°59' E 027°03'713.7
2017-Nov-16 15:00N 70°59' E 026°42'714.2
2017-Nov-16 14:30N 70°58' E 026°21'714.2
2017-Nov-16 14:00N 70°58' E 025°59'1 1.9
2017-Nov-16 13:29N 70°59' E 025°58'0 0.0
2017-Nov-16 12:59N 70°59' E 025°58'0 0.0
2017-Nov-16 12:29N 70°59' E 025°58'0 0.0
2017-Nov-16 11:59N 70°59' E 025°58'0 0.0
2017-Nov-16 11:29N 70°59' E 025°58'0 0.0
2017-Nov-16 10:59N 70°59' E 025°58'0 0.0
2017-Nov-16 10:30N 70°59' E 025°58'2 4.5
2017-Nov-16 10:00N 70°57' E 025°54'714.4
2017-Nov-16 09:30N 70°56' E 025°32'714.7
2017-Nov-16 09:00N 70°59' E 025°13'714.6
2017-Nov-16 08:30N 70°60' E 024°50'3 5.8
2017-Nov-16 08:00N 70°60' E 024°41'4 7.5
2017-Nov-16 07:30N 71°01' E 024°31'715.0
2017-Nov-16 07:01N 70°56' E 024°14'814.8
2017-Nov-16 06:30N 70°51' E 023°57'815.2
2017-Nov-16 06:00N 70°46' E 023°40'612.0
2017-Nov-16 05:30N 70°40' E 023°38'1 1.8
2017-Nov-16 05:00N 70°40' E 023°41'0 0.4
2017-Nov-16 04:31N 70°40' E 023°41'713.7
2017-Nov-16 04:00N 70°38' E 023°21'715.1
2017-Nov-16 03:30N 70°33' E 023°04'715.0
2017-Nov-16 03:00N 70°28' E 022°46'815.6
2017-Nov-16 02:30N 70°24' E 022°27'713.7
2017-Nov-16 02:00N 70°18' E 022°19'3 6.8
2017-Nov-16 01:30N 70°14' E 022°21'612.6
2017-Nov-16 01:00N 70°19' E 022°10'815.6
2017-Nov-16 00:30N 70°23' E 021°49'613.0
2017-Nov-16 00:00N 70°21' E 021°32'816.0
2017-Nov-15 23:30N 70°15' E 021°14'815.4
2017-Nov-15 23:00N 70°08' E 021°05'612.7
2017-Nov-15 22:30N 70°02' E 020°59'1 2.4
2017-Nov-15 22:00N 70°03' E 021°02'713.9
2017-Nov-15 21:30N 70°02' E 020°42'815.8
2017-Nov-15 21:00N 69°59' E 020°20'815.5
2017-Nov-15 20:30N 69°55' E 020°01'815.7
2017-Nov-15 20:00N 69°51' E 019°42'815.9
2017-Nov-15 19:30N 69°48' E 019°21'714.8
2017-Nov-15 19:00N 69°44' E 019°03'510.0
2017-Nov-15 18:30N 69°39' E 018°58'0 0.0
2017-Nov-15 18:00N 69°39' E 018°58'0 0.0
2017-Nov-15 17:30N 69°39' E 018°58'0 0.0
2017-Nov-15 17:00N 69°39' E 018°58'0 0.0
2017-Nov-15 16:30N 69°39' E 018°58'0 0.0
2017-Nov-15 16:00N 69°39' E 018°58'0 0.0
2017-Nov-15 15:30N 69°39' E 018°58'0 0.0
2017-Nov-15 15:00N 69°39' E 018°58'0 0.0
2017-Nov-15 14:30N 69°39' E 018°58'510.3
2017-Nov-15 14:00N 69°35' E 018°49'714.8
2017-Nov-15 13:30N 69°32' E 018°30'816.0
2017-Nov-15 13:00N 69°29' E 018°08'815.1
2017-Nov-15 12:30N 69°21' E 018°05'714.7
2017-Nov-15 12:00N 69°14' E 017°58'0 0.2
2017-Nov-15 11:30N 69°14' E 017°58'3 5.4
2017-Nov-15 11:00N 69°17' E 017°59'3 6.4
2017-Nov-15 10:30N 69°14' E 017°58'0 0.0
2017-Nov-15 10:00N 69°14' E 017°58'4 8.0
2017-Nov-15 09:30N 69°10' E 017°56'714.3
2017-Nov-15 09:00N 69°07' E 017°38'714.0
2017-Nov-15 08:31N 69°03' E 017°21'714.3
2017-Nov-15 08:00N 68°58' E 017°08'714.4
2017-Nov-15 07:30N 68°53' E 016°52'714.2
2017-Nov-15 07:00N 68°49' E 016°36'2 3.3
2017-Nov-15 06:29N 68°48' E 016°33'0 0.0
2017-Nov-15 06:00N 68°48' E 016°33'4 7.3
2017-Nov-15 05:30N 68°51' E 016°31'814.7
2017-Nov-15 05:00N 68°56' E 016°15'714.5
2017-Nov-15 04:30N 68°59' E 015°56'611.8
2017-Nov-15 03:59N 68°58' E 015°40'3 5.7
2017-Nov-15 03:30N 68°56' E 015°35'714.8
2017-Nov-15 03:00N 68°49' E 015°27'714.2
2017-Nov-15 02:30N 68°42' E 015°25'0 0.1
2017-Nov-15 02:00N 68°42' E 015°25'612.5
2017-Nov-15 01:30N 68°36' E 015°16'714.1
2017-Nov-15 01:00N 68°35' E 014°58'1 2.4
2017-Nov-15 00:30N 68°34' E 014°55'510.1
2017-Nov-15 00:00N 68°32' E 015°07'510.9
2017-Nov-14 23:30N 68°27' E 015°10'714.2
2017-Nov-14 23:00N 68°20' E 015°02'2 4.2
2017-Nov-14 22:30N 68°22' E 014°57'510.5
2017-Nov-14 22:00N 68°17' E 014°58'510.4
2017-Nov-14 21:30N 68°14' E 014°46'4 8.8
2017-Nov-14 21:00N 68°14' E 014°34'0 0.0
2017-Nov-14 20:29N 68°14' E 014°34'0 0.6
2017-Nov-14 20:00N 68°14' E 014°34'611.7
2017-Nov-14 19:30N 68°10' E 014°21'714.2
2017-Nov-14 19:00N 68°07' E 014°04'510.0
2017-Nov-14 18:30N 68°07' E 013°50'0 0.5
2017-Nov-14 18:00N 68°07' E 013°50'713.7
2017-Nov-14 17:30N 68°00' E 013°55'713.1
2017-Nov-14 16:59N 67°54' E 014°01'713.3
2017-Nov-14 16:30N 67°48' E 014°07'714.0
2017-Nov-14 16:00N 67°41' E 014°13'714.0
2017-Nov-14 15:30N 67°35' E 014°19'713.9
2017-Nov-14 15:00N 67°28' E 014°23'713.2
2017-Nov-14 14:30N 67°21' E 014°24'4 8.5
2017-Nov-14 14:01N 67°17' E 014°23'0 0.0
2017-Nov-14 13:29N 67°17' E 014°23'0 0.0
2017-Nov-14 12:59N 67°17' E 014°23'0 0.0
2017-Nov-14 12:29N 67°17' E 014°23'0 0.0
2017-Nov-14 11:59N 67°17' E 014°23'0 0.2
2017-Nov-14 11:31N 67°17' E 014°23'611.5
2017-Nov-14 11:01N 67°14' E 014°12'714.2
2017-Nov-14 10:30N 67°08' E 014°01'714.2
2017-Nov-14 10:01N 67°03' E 013°49'714.5
2017-Nov-14 09:30N 66°58' E 013°34'5 9.3
2017-Nov-14 09:00N 66°54' E 013°35'3 6.4
2017-Nov-14 08:30N 66°52' E 013°42'2 5.0
2017-Nov-14 08:00N 66°50' E 013°39'713.9
2017-Nov-14 07:30N 66°48' E 013°22'713.7
2017-Nov-14 07:00N 66°43' E 013°11'714.3
2017-Nov-14 06:30N 66°36' E 013°04'612.3
2017-Nov-14 06:00N 66°30' E 012°59'814.6
2017-Nov-14 05:30N 66°23' E 012°58'715.1
2017-Nov-14 05:00N 66°16' E 012°55'4 8.7
2017-Nov-14 04:30N 66°12' E 013°00'4 8.3
2017-Nov-14 04:00N 66°09' E 012°53'714.7
2017-Nov-14 03:30N 66°04' E 012°39'3 5.3
2017-Nov-14 02:58N 66°01' E 012°38'1 2.6
2017-Nov-14 02:30N 66°02' E 012°35'815.0
2017-Nov-14 02:00N 65°56' E 012°24'715.0
2017-Nov-14 01:30N 65°48' E 012°21'714.8
2017-Nov-14 01:00N 65°41' E 012°16'714.8
2017-Nov-14 00:30N 65°34' E 012°13'510.4
2017-Nov-14 00:00N 65°29' E 012°13'3 5.2
2017-Nov-13 23:29N 65°26' E 012°09'714.3
2017-Nov-13 23:00N 65°20' E 012°02'714.7
2017-Nov-13 22:30N 65°13' E 011°54'714.6
2017-Nov-13 22:00N 65°07' E 011°49'121 6.1
2017-Nov-13 02:00N 63°29' E 009°02'815.7
2017-Nov-13 01:30N 63°26' E 008°46'815.7
2017-Nov-13 01:00N 63°23' E 008°30'815.3
2017-Nov-13 00:30N 63°19' E 008°16'714.9
2017-Nov-13 00:01N 63°15' E 008°02'714.8
2017-Nov-12 23:31N 63°11' E 007°48'5 9.8
2017-Nov-12 23:01N 63°06' E 007°44'1 2.8
2017-Nov-12 22:30N 63°07' E 007°41'612.3
2017-Nov-12 22:01N 63°05' E 007°28'612.9
2017-Nov-12 21:30N 63°03' E 007°14'611.4
2017-Nov-12 21:00N 63°02' E 007°02'611.1
2017-Nov-12 20:30N 62°58' E 006°52'4 8.5
2017-Nov-12 20:00N 62°54' E 006°52'612.7
2017-Nov-12 19:30N 62°48' E 006°58'510.7
2017-Nov-12 19:00N 62°43' E 007°03'3 6.4
2017-Nov-12 18:30N 62°44' E 007°09'713.5
2017-Nov-12 18:00N 62°42' E 006°56'815.0
2017-Nov-12 17:30N 62°39' E 006°40'714.8
2017-Nov-12 17:00N 62°37' E 006°24'713.9
2017-Nov-12 16:31N 62°34' E 006°12'714.1
2017-Nov-12 16:01N 62°28' E 006°05'2 4.5
2017-Nov-12 15:30N 62°28' E 006°09'0 0.0
2017-Nov-12 15:00N 62°28' E 006°09'0 0.0
2017-Nov-12 14:30N 62°28' E 006°09'2 4.0
2017-Nov-12 14:00N 62°27' E 006°06'714.4
2017-Nov-12 13:30N 62°25' E 005°51'611.5
2017-Nov-12 12:59N 62°20' E 005°44'1 1.8
2017-Nov-12 12:30N 62°19' E 005°45'713.8
2017-Nov-12 12:00N 62°18' E 005°30'612.7
2017-Nov-12 11:30N 62°16' E 005°17'611.5
2017-Nov-12 11:00N 62°14' E 005°06'5 9.7
2017-Nov-12 10:30N 62°10' E 004°60'5 9.8
2017-Nov-12 10:00N 62°05' E 005°00'5 9.7
2017-Nov-12 09:29N 62°02' E 005°09'611.8
2017-Nov-12 09:00N 61°56' E 005°07'4 8.0
2017-Nov-12 08:30N 61°53' E 005°11'4 7.3
2017-Nov-12 08:00N 61°49' E 005°11'815.2
2017-Nov-12 07:30N 61°44' E 004°59'714.8
2017-Nov-12 07:00N 61°37' E 004°59'1 2.6
2017-Nov-12 06:30N 61°36' E 005°02'3 6.2
2017-Nov-12 06:00N 61°33' E 005°00'715.0
2017-Nov-12 05:31N 61°26' E 004°58'714.6
2017-Nov-12 05:00N 61°19' E 005°04'612.0
2017-Nov-12 04:30N 61°14' E 004°56'714.0
2017-Nov-12 04:00N 61°07' E 005°02'713.5
2017-Nov-12 03:31N 61°02' E 004°54'712.9
2017-Nov-12 03:00N 60°57' E 004°46'714.0
2017-Nov-12 02:30N 60°50' E 004°45'713.5
2017-Nov-12 02:00N 60°43' E 004°49'714.5
2017-Nov-12 01:30N 60°36' E 004°54'814.9
2017-Nov-12 00:59N 60°29' E 004°59'714.6
2017-Nov-12 00:31N 60°24' E 005°08'510.0
2017-Nov-12 00:00N 60°24' E 005°19'0 0.0
2017-Nov-11 23:25N 60°24' E 005°19'0 0.0
2017-Nov-11 22:55N 60°24' E 005°19'0 0.0
2017-Nov-11 22:19N 60°24' E 005°19'0 0.0
2017-Nov-11 21:55N 60°24' E 005°19'0 0.0
2017-Nov-11 21:25N 60°24' E 005°19'0 0.0
2017-Nov-11 20:55N 60°24' E 005°19'0 0.0
2017-Nov-11 20:25N 60°24' E 005°19'0 0.0
2017-Nov-11 19:55N 60°24' E 005°19'0 0.0
2017-Nov-11 19:25N 60°24' E 005°19'0 0.0
2017-Nov-11 18:58N 60°24' E 005°19'0 0.0
2017-Nov-11 18:28N 60°24' E 005°19'0 0.0
2017-Nov-11 17:58N 60°24' E 005°19'0 0.0
2017-Nov-11 17:28N 60°24' E 005°19'0 0.0
2017-Nov-11 16:58N 60°24' E 005°19'0 0.0
2017-Nov-11 16:28N 60°24' E 005°19'0 0.0
2017-Nov-11 15:58N 60°24' E 005°19'1 2.0
2017-Nov-11 15:30N 60°24' E 005°17'713.7
2017-Nov-11 15:00N 60°25' E 005°03'816.2
2017-Nov-11 14:30N 60°33' E 004°56'816.2
2017-Nov-11 14:00N 60°40' E 004°51'815.8
2017-Nov-11 13:30N 60°48' E 004°45'814.9
2017-Nov-11 13:00N 60°55' E 004°46'714.2
2017-Nov-11 12:30N 61°01' E 004°52'815.1
2017-Nov-11 12:00N 61°07' E 005°02'814.8
2017-Nov-11 11:29N 61°14' E 004°56'612.6
2017-Nov-11 11:00N 61°19' E 005°04'715.1
2017-Nov-11 10:30N 61°26' E 004°58'815.2
2017-Nov-11 10:00N 61°34' E 004°59'3 5.3
2017-Nov-11 09:30N 61°36' E 005°02'2 4.8
2017-Nov-11 09:00N 61°38' E 004°59'714.5
2017-Nov-11 08:30N 61°45' E 005°01'714.8
2017-Nov-11 08:00N 61°50' E 005°13'510.1
2017-Nov-11 07:30N 61°54' E 005°08'2 4.6
2017-Nov-11 07:00N 61°56' E 005°07'510.0
2017-Nov-11 06:30N 62°01' E 005°09'4 8.7
2017-Nov-11 06:00N 62°04' E 005°02'5 9.2
2017-Nov-11 05:30N 62°09' E 004°60'4 7.5
2017-Nov-11 04:59N 62°12' E 005°02'4 8.1
2017-Nov-11 04:30N 62°14' E 005°10'4 8.3
2017-Nov-11 04:00N 62°12' E 005°18'611.1
2017-Nov-11 03:29N 62°12' E 005°30'714.3
2017-Nov-11 03:00N 62°12' E 005°45'714.6
2017-Nov-11 02:30N 62°16' E 005°58'713.9
2017-Nov-11 02:00N 62°22' E 006°07'713.6
2017-Nov-11 01:30N 62°28' E 006°04'4 7.4
2017-Nov-11 01:00N 62°29' E 006°12'1 2.5
2017-Nov-11 00:30N 62°29' E 006°09'1 1.4
2017-Nov-11 00:01N 62°29' E 006°09'612.6
2017-Nov-10 23:30N 62°35' E 006°15'612.5
2017-Nov-10 23:00N 62°38' E 006°27'714.0
2017-Nov-10 22:30N 62°39' E 006°42'714.2
2017-Nov-10 22:00N 62°42' E 006°56'612.6
2017-Nov-10 21:29N 62°44' E 007°09'0 0.2
2017-Nov-10 21:00N 62°44' E 007°09'4 8.6
2017-Nov-10 20:30N 62°43' E 007°00'612.3
2017-Nov-10 20:00N 62°49' E 006°58'612.7
2017-Nov-10 19:30N 62°55' E 006°51'510.3
2017-Nov-10 19:00N 62°59' E 006°55'510.2
2017-Nov-10 18:30N 63°02' E 007°04'5 9.8
2017-Nov-10 18:00N 63°03' E 007°14'611.4
2017-Nov-10 17:30N 63°05' E 007°27'611.8
2017-Nov-10 17:01N 63°08' E 007°38'3 6.0
2017-Nov-10 16:30N 63°07' E 007°44'0 0.1
2017-Nov-10 16:00N 63°07' E 007°44'3 5.6
2017-Nov-10 15:30N 63°10' E 007°45'714.2
2017-Nov-10 15:00N 63°14' E 007°58'714.3
2017-Nov-10 14:30N 63°17' E 008°11'713.6
2017-Nov-10 14:00N 63°22' E 008°23'713.9
2017-Nov-10 13:30N 63°25' E 008°36'714.3
2017-Nov-10 13:00N 63°28' E 008°51'713.6
2017-Nov-10 12:30N 63°30' E 009°06'611.9
2017-Nov-10 12:00N 63°33' E 009°17'713.2
2017-Nov-10 11:30N 63°36' E 009°30'713.7
2017-Nov-10 11:00N 63°39' E 009°44'713.7
2017-Nov-10 10:30N 63°34' E 009°51'713.0
2017-Nov-10 10:01N 63°29' E 010°01'714.1
2017-Nov-10 09:30N 63°28' E 010°17'4 6.6
2017-Nov-10 08:59N 63°27' E 010°24'0 0.0
2017-Nov-10 08:29N 63°27' E 010°24'0 0.0
2017-Nov-10 07:59N 63°27' E 010°24'0 0.0
2017-Nov-10 07:29N 63°27' E 010°24'0 0.0
2017-Nov-10 06:59N 63°27' E 010°24'0 0.0
2017-Nov-10 06:29N 63°27' E 010°24'0 0.0
2017-Nov-10 05:59N 63°27' E 010°24'1 2.5
2017-Nov-10 05:30N 63°27' E 010°22'815.0
2017-Nov-10 05:00N 63°28' E 010°05'714.4
2017-Nov-10 04:30N 63°33' E 009°52'714.4
2017-Nov-10 04:00N 63°39' E 009°46'714.6
2017-Nov-10 03:30N 63°38' E 009°29'713.4
2017-Nov-10 03:00N 63°44' E 009°32'713.9
2017-Nov-10 02:30N 63°51' E 009°39'713.3
2017-Nov-10 02:00N 63°56' E 009°47'713.3
2017-Nov-10 01:30N 64°03' E 009°48'713.6
2017-Nov-10 01:00N 64°07' E 010°01'713.6
2017-Nov-10 00:30N 64°12' E 010°11'612.7
2017-Nov-10 00:00N 64°17' E 010°19'612.7
2017-Nov-09 23:30N 64°22' E 010°28'713.6
2017-Nov-09 23:00N 64°29' E 010°26'612.4
2017-Nov-09 22:30N 64°34' E 010°34'612.4
2017-Nov-09 22:00N 64°39' E 010°43'612.7
2017-Nov-09 21:30N 64°43' E 010°54'613.2
2017-Nov-09 21:01N 64°48' E 011°06'510.8
2017-Nov-09 20:30N 64°52' E 011°14'0 0.0
2017-Nov-09 20:00N 64°52' E 011°14'0 0.1
2017-Nov-09 19:30N 64°52' E 011°14'611.8
2017-Nov-09 19:01N 64°55' E 011°25'714.0
2017-Nov-09 18:31N 65°00' E 011°37'714.2
2017-Nov-09 18:01N 65°06' E 011°48'713.9
2017-Nov-09 17:30N 65°12' E 011°53'713.3
2017-Nov-09 17:01N 65°18' E 011°59'714.0
2017-Nov-09 16:30N 65°24' E 012°08'4 8.8
2017-Nov-09 16:00N 65°29' E 012°13'0 0.0
2017-Nov-09 15:28N 65°29' E 012°13'0 0.0
2017-Nov-09 15:00N 65°29' E 012°13'4 8.3
2017-Nov-09 14:30N 65°33' E 012°12'714.1
2017-Nov-09 14:00N 65°40' E 012°15'714.1
2017-Nov-09 13:30N 65°47' E 012°19'713.9
2017-Nov-09 13:00N 65°53' E 012°22'612.7
2017-Nov-09 12:30N 65°59' E 012°29'5 9.1
2017-Nov-09 12:00N 66°01' E 012°38'2 3.1
2017-Nov-09 11:30N 66°03' E 012°39'713.4
2017-Nov-09 11:00N 66°08' E 012°49'611.8
2017-Nov-09 10:30N 66°12' E 013°00'3 6.5
2017-Nov-09 10:00N 66°14' E 012°54'714.6
2017-Nov-09 09:30N 66°21' E 012°57'714.5
2017-Nov-09 09:00N 66°28' E 012°59'612.0
2017-Nov-09 08:30N 66°34' E 013°04'612.7
2017-Nov-09 08:00N 66°40' E 013°07'612.4
2017-Nov-09 07:30N 66°46' E 013°13'713.5
2017-Nov-09 07:00N 66°49' E 013°29'612.3
2017-Nov-09 06:30N 66°52' E 013°42'2 3.6
2017-Nov-09 06:00N 66°52' E 013°37'611.2
2017-Nov-09 05:31N 66°56' E 013°29'713.1
2017-Nov-09 05:00N 67°01' E 013°41'714.8
2017-Nov-09 04:30N 67°05' E 013°56'612.7
2017-Nov-09 04:00N 67°11' E 014°05'713.7
2017-Nov-09 03:30N 67°16' E 014°17'3 5.4
2017-Nov-09 02:58N 67°17' E 014°23'0 0.0
2017-Nov-09 02:28N 67°17' E 014°23'0 0.0
2017-Nov-09 01:58N 67°17' E 014°23'0 0.0
2017-Nov-09 01:28N 67°17' E 014°23'0 0.0
2017-Nov-09 00:58N 67°17' E 014°23'0 0.0
2017-Nov-09 00:28N 67°17' E 014°23'0 0.2
2017-Nov-09 00:01N 67°17' E 014°23'5 9.4
2017-Nov-08 23:31N 67°22' E 014°24'712.9
2017-Nov-08 23:00N 67°28' E 014°23'713.8
2017-Nov-08 22:30N 67°35' E 014°19'713.3
2017-Nov-08 22:00N 67°41' E 014°13'612.8
2017-Nov-08 21:30N 67°48' E 014°07'612.0
2017-Nov-08 21:00N 67°53' E 014°02'611.5
2017-Nov-08 20:30N 67°59' E 013°57'611.4
2017-Nov-08 20:00N 68°04' E 013°54'4 8.0
2017-Nov-08 19:30N 68°07' E 014°01'510.9
2017-Nov-08 19:00N 68°09' E 014°15'611.1
2017-Nov-08 18:30N 68°11' E 014°29'3 5.8
2017-Nov-08 18:00N 68°13' E 014°35'1 2.0
2017-Nov-08 17:30N 68°13' E 014°38'  

Dump ship's entire track history